Wetterdaten: Freitag, 06.04.2007
Datum Zeit Temp. A. Feuchte A. Luftdruck Regen Wind Richtung Richtung Sonnenschein UV Solar Windben
06.04.2007 00:00 5,5 C 88 % 1020,7 hPa 0,0 mm 0,0 km/h (0 Bft) N 0 0 min 0 UV-I 0 W/m 0,0 km/h (0 Bft)
06.04.2007 00:10 5,3 C 88 % 1020,9 hPa 0,0 mm 0,0 km/h (0 Bft) N 0 0 min 0 UV-I 0 W/m 0,0 km/h (0 Bft)
06.04.2007 00:20 5,1 C 89 % 1020,8 hPa 0,0 mm 0,0 km/h (0 Bft) N 0 0 min 0 UV-I 0 W/m 0,0 km/h (0 Bft)
06.04.2007 00:30 4,9 C 89 % 1020,9 hPa 0,0 mm 0,0 km/h (0 Bft) N 0 0 min 0 UV-I 0 W/m 0,0 km/h (0 Bft)
06.04.2007 00:40 4,8 C 89 % 1021,0 hPa 0,0 mm 0,0 km/h (0 Bft) N 0 0 min 0 UV-I 0 W/m 0,0 km/h (0 Bft)
06.04.2007 00:50 4,7 C 89 % 1021,0 hPa 0,0 mm 0,0 km/h (0 Bft) N 0 0 min 0 UV-I 0 W/m 0,0 km/h (0 Bft)
06.04.2007 01:00 4,6 C 89 % 1021,1 hPa 0,0 mm 0,0 km/h (0 Bft) N 0 0 min 0 UV-I 0 W/m 0,0 km/h (0 Bft)
06.04.2007 01:10 4,5 C 88 % 1021,1 hPa 0,0 mm 0,0 km/h (0 Bft) N 0 0 min 0 UV-I 0 W/m 0,0 km/h (0 Bft)
06.04.2007 01:20 4,3 C 89 % 1021,1 hPa 0,0 mm 0,0 km/h (0 Bft) N 0 0 min 0 UV-I 0 W/m 0,0 km/h (0 Bft)
06.04.2007 01:30 4,2 C 89 % 1021,0 hPa 0,0 mm 0,0 km/h (0 Bft) N 0 0 min 0 UV-I 0 W/m 0,0 km/h (0 Bft)
06.04.2007 01:40 4,2 C 89 % 1021,1 hPa 0,0 mm 0,0 km/h (0 Bft) N 0 0 min 0 UV-I 0 W/m 0,0 km/h (0 Bft)
06.04.2007 01:50 4,1 C 90 % 1021,1 hPa 0,0 mm 0,0 km/h (0 Bft) N 0 0 min 0 UV-I 0 W/m 0,0 km/h (0 Bft)
06.04.2007 02:00 4,0 C 89 % 1021,2 hPa 0,0 mm 0,0 km/h (0 Bft) N 0 0 min 0 UV-I 0 W/m 0,0 km/h (0 Bft)
06.04.2007 02:10 3,8 C 90 % 1021,1 hPa 0,0 mm 0,0 km/h (0 Bft) N 0 0 min 0 UV-I 0 W/m 0,0 km/h (0 Bft)
06.04.2007 02:20 3,7 C 89 % 1021,0 hPa 0,0 mm 0,0 km/h (0 Bft) N 0 0 min 0 UV-I 0 W/m 0,0 km/h (0 Bft)
06.04.2007 02:30 3,7 C 90 % 1021,0 hPa 0,0 mm 0,0 km/h (0 Bft) N 0 0 min 0 UV-I 0 W/m 0,0 km/h (0 Bft)
06.04.2007 02:40 4,3 C 89 % 1021,0 hPa 0,0 mm 0,0 km/h (0 Bft) N 0 0 min 0 UV-I 0 W/m 0,0 km/h (0 Bft)
06.04.2007 02:50 4,7 C 88 % 1020,9 hPa 0,0 mm 0,0 km/h (0 Bft) N 0 0 min 0 UV-I 0 W/m 0,0 km/h (0 Bft)
06.04.2007 03:00 4,3 C 88 % 1020,9 hPa 0,0 mm 0,0 km/h (0 Bft) N 0 0 min 0 UV-I 0 W/m 0,0 km/h (0 Bft)
06.04.2007 03:10 3,9 C 89 % 1020,9 hPa 0,0 mm 0,0 km/h (0 Bft) N 0 0 min 0 UV-I 0 W/m 0,0 km/h (0 Bft)
06.04.2007 03:20 3,8 C 89 % 1020,8 hPa 0,0 mm 0,0 km/h (0 Bft) N 0 0 min 0 UV-I 0 W/m 0,0 km/h (0 Bft)
06.04.2007 03:30 3,7 C 89 % 1020,8 hPa 0,0 mm 0,0 km/h (0 Bft) N 0 0 min 0 UV-I 0 W/m 0,0 km/h (0 Bft)
06.04.2007 03:40 3,8 C 91 % 1020,7 hPa 0,0 mm 0,0 km/h (0 Bft) N 0 0 min 0 UV-I 0 W/m 0,0 km/h (0 Bft)
06.04.2007 03:50 4,2 C 89 % 1020,7 hPa 0,0 mm 0,0 km/h (0 Bft) N 0 0 min 0 UV-I 0 W/m 0,0 km/h (0 Bft)
06.04.2007 04:00 3,9 C 90 % 1020,7 hPa 0,0 mm 0,0 km/h (0 Bft) N 0 0 min 0 UV-I 0 W/m 0,0 km/h (0 Bft)
06.04.2007 04:10 3,7 C 89 % 1020,7 hPa 0,0 mm 0,0 km/h (0 Bft) N 0 0 min 0 UV-I 0 W/m 0,0 km/h (0 Bft)
06.04.2007 04:20 3,4 C 90 % 1020,7 hPa 0,0 mm 0,0 km/h (0 Bft) N 0 0 min 0 UV-I 0 W/m 0,0 km/h (0 Bft)
06.04.2007 04:30 3,4 C 91 % 1020,7 hPa 0,0 mm 0,0 km/h (0 Bft) N 0 0 min 0 UV-I 0 W/m 0,0 km/h (0 Bft)
06.04.2007 04:40 3,3 C 91 % 1020,7 hPa 0,0 mm 0,0 km/h (0 Bft) N 0 0 min 0 UV-I 0 W/m 0,0 km/h (0 Bft)
06.04.2007 04:50 3,2 C 91 % 1020,7 hPa 0,0 mm 0,0 km/h (0 Bft) N 0 0 min 0 UV-I 0 W/m 0,0 km/h (0 Bft)
06.04.2007 05:00 3,1 C 91 % 1020,7 hPa 0,0 mm 0,0 km/h (0 Bft) N 0 0 min 0 UV-I 0 W/m 0,0 km/h (0 Bft)
06.04.2007 05:10 2,9 C 91 % 1020,8 hPa 0,0 mm 0,0 km/h (0 Bft) N 0 0 min 0 UV-I 0 W/m 0,0 km/h (0 Bft)
06.04.2007 05:20 2,9 C 90 % 1020,7 hPa 0,0 mm 0,0 km/h (0 Bft) N 0 0 min 0 UV-I 0 W/m 0,0 km/h (0 Bft)
06.04.2007 05:30 2,7 C 91 % 1020,6 hPa 0,0 mm 0,0 km/h (0 Bft) N 0 0 min 0 UV-I 0 W/m 0,0 km/h (0 Bft)
06.04.2007 05:40 2,7 C 91 % 1020,7 hPa 0,0 mm 0,0 km/h (0 Bft) N 0 0 min 0 UV-I 0 W/m 0,0 km/h (0 Bft)
06.04.2007 05:50 2,4 C 91 % 1020,7 hPa 0,0 mm 0,0 km/h (0 Bft) N 0 0 min 0 UV-I 0 W/m 0,0 km/h (0 Bft)
06.04.2007 06:00 2,4 C 91 % 1020,7 hPa 0,0 mm 0,0 km/h (0 Bft) N 0 0 min 0 UV-I 0 W/m 0,0 km/h (0 Bft)
06.04.2007 06:10 2,3 C 91 % 1020,9 hPa 0,0 mm 0,0 km/h (0 Bft) N 0 0 min 0 UV-I 0 W/m 0,0 km/h (0 Bft)
06.04.2007 06:20 2,2 C 91 % 1020,9 hPa 0,0 mm 0,0 km/h (0 Bft) N 0 0 min 0 UV-I 0 W/m 0,0 km/h (0 Bft)
06.04.2007 06:30 2,2 C 91 % 1020,9 hPa 0,0 mm 0,0 km/h (0 Bft) N 0 0 min 0 UV-I 0 W/m 0,0 km/h (0 Bft)
06.04.2007 06:40 2,0 C 91 % 1021,0 hPa 0,0 mm 0,0 km/h (0 Bft) N 0 0 min 0 UV-I 0 W/m 0,0 km/h (0 Bft)
06.04.2007 06:50 1,9 C 91 % 1021,0 hPa 0,0 mm 0,0 km/h (0 Bft) N 0 0 min 0 UV-I 0 W/m 0,0 km/h (0 Bft)
06.04.2007 07:00 1,8 C 91 % 1021,1 hPa 0,0 mm 0,0 km/h (0 Bft) N 0 0 min 0 UV-I 7 W/m 0,0 km/h (0 Bft)
06.04.2007 07:10 1,8 C 91 % 1021,2 hPa 0,0 mm 0,0 km/h (0 Bft) N 0 0 min 0 UV-I 12 W/m 0,0 km/h (0 Bft)
06.04.2007 07:20 1,8 C 91 % 1021,3 hPa 0,0 mm 0,0 km/h (0 Bft) N 0 0 min 0 UV-I 18 W/m 0,0 km/h (0 Bft)
06.04.2007 07:30 1,9 C 91 % 1021,4 hPa 0,0 mm 0,0 km/h (0 Bft) N 0 0 min 0 UV-I 28 W/m 0,0 km/h (0 Bft)
06.04.2007 07:40 2,1 C 91 % 1021,4 hPa 0,0 mm 0,0 km/h (0 Bft) N 0 10 min 0 UV-I 74 W/m 0,0 km/h (0 Bft)
06.04.2007 07:50 2,5 C 91 % 1021,5 hPa 0,0 mm 0,0 km/h (0 Bft) N 0 10 min 0 UV-I 90 W/m 0,0 km/h (0 Bft)
06.04.2007 08:00 2,9 C 91 % 1021,5 hPa 0,0 mm 0,0 km/h (0 Bft) N 0 10 min 0 UV-I 107 W/m 0,0 km/h (0 Bft)
06.04.2007 08:10 3,4 C 90 % 1021,6 hPa 0,0 mm 0,0 km/h (0 Bft) N 0 10 min 0 UV-I 134 W/m 0,0 km/h (0 Bft)
06.04.2007 08:20 3,9 C 90 % 1021,6 hPa 0,0 mm 0,0 km/h (0 Bft) N 0 10 min 0 UV-I 141 W/m 0,0 km/h (0 Bft)
06.04.2007 08:30 4,3 C 90 % 1021,6 hPa 0,0 mm 0,0 km/h (0 Bft) W-SW 247 10 min 0 UV-I 179 W/m 1,6 km/h (1 Bft)
06.04.2007 08:40 5,0 C 89 % 1021,7 hPa 0,0 mm 0,0 km/h (0 Bft) N 0 10 min 1 UV-I 195 W/m 0,0 km/h (0 Bft)
06.04.2007 08:50 5,6 C 89 % 1021,7 hPa 0,0 mm 0,0 km/h (0 Bft) W-SW 247 10 min 1 UV-I 230 W/m 1,6 km/h (1 Bft)
06.04.2007 09:00 6,3 C 88 % 1021,7 hPa 0,0 mm 0,0 km/h (0 Bft) W-SW 247 10 min 1 UV-I 241 W/m 1,6 km/h (1 Bft)
06.04.2007 09:10 7,0 C 87 % 1021,8 hPa 0,0 mm 0,0 km/h (0 Bft) W-SW 247 10 min 1 UV-I 276 W/m 3,2 km/h (1 Bft)
06.04.2007 09:20 7,6 C 86 % 1021,8 hPa 0,0 mm 1,6 km/h (1 Bft) W-NW 292 10 min 1 UV-I 304 W/m 4,8 km/h (1 Bft)
06.04.2007 09:30 8,2 C 84 % 1021,8 hPa 0,0 mm 1,6 km/h (1 Bft) W-SW 247 10 min 1 UV-I 330 W/m 6,4 km/h (2 Bft)
06.04.2007 09:40 8,9 C 79 % 1021,9 hPa 0,0 mm 1,6 km/h (1 Bft) W-SW 247 10 min 1 UV-I 359 W/m 6,4 km/h (2 Bft)
06.04.2007 09:50 9,4 C 77 % 1021,8 hPa 0,0 mm 1,6 km/h (1 Bft) SW 225 10 min 2 UV-I 392 W/m 8,0 km/h (2 Bft)
06.04.2007 10:00 9,7 C 74 % 1021,9 hPa 0,0 mm 1,6 km/h (1 Bft) W-SW 247 10 min 2 UV-I 432 W/m 8,0 km/h (2 Bft)
06.04.2007 10:10 10,3 C 69 % 1021,9 hPa 0,0 mm 3,2 km/h (1 Bft) W-SW 247 10 min 2 UV-I 494 W/m 8,0 km/h (2 Bft)
06.04.2007 10:20 10,7 C 69 % 1021,9 hPa 0,0 mm 3,2 km/h (1 Bft) W-SW 247 10 min 2 UV-I 506 W/m 9,7 km/h (2 Bft)
06.04.2007 10:30 11,1 C 67 % 1021,9 hPa 0,0 mm 3,2 km/h (1 Bft) W-SW 247 10 min 2 UV-I 548 W/m 9,7 km/h (2 Bft)
06.04.2007 10:40 11,4 C 66 % 1021,9 hPa 0,0 mm 3,2 km/h (1 Bft) W-SW 247 10 min 2 UV-I 541 W/m 6,4 km/h (2 Bft)
06.04.2007 10:50 11,6 C 62 % 1021,9 hPa 0,0 mm 3,2 km/h (1 Bft) W-SW 247 10 min 3 UV-I 557 W/m 11,3 km/h (2 Bft)
06.04.2007 11:00 11,7 C 65 % 1021,9 hPa 0,0 mm 1,6 km/h (1 Bft) W-SW 247 10 min 2 UV-I 346 W/m 8,0 km/h (2 Bft)
06.04.2007 11:10 11,7 C 64 % 1021,9 hPa 0,0 mm 1,6 km/h (1 Bft) W-SW 247 10 min 2 UV-I 422 W/m 8,0 km/h (2 Bft)
06.04.2007 11:20 12,2 C 65 % 1021,9 hPa 0,0 mm 1,6 km/h (1 Bft) W-SW 247 10 min 3 UV-I 696 W/m 6,4 km/h (2 Bft)
06.04.2007 11:30 13,1 C 51 % 1021,8 hPa 0,0 mm 1,6 km/h (1 Bft) W-SW 247 10 min 3 UV-I 647 W/m 8,0 km/h (2 Bft)
06.04.2007 11:40 13,4 C 51 % 1021,8 hPa 0,0 mm 3,2 km/h (1 Bft) W-SW 247 10 min 3 UV-I 606 W/m 16,1 km/h (3 Bft)
06.04.2007 11:50 13,2 C 55 % 1021,8 hPa 0,0 mm 4,8 km/h (1 Bft) W-SW 247 10 min 3 UV-I 601 W/m 16,1 km/h (3 Bft)
06.04.2007 12:00 13,3 C 55 % 1021,8 hPa 0,0 mm 3,2 km/h (1 Bft) W-SW 247 10 min 3 UV-I 652 W/m 11,3 km/h (2 Bft)
06.04.2007 12:10 13,4 C 59 % 1021,8 hPa 0,0 mm 3,2 km/h (1 Bft) W 270 10 min 3 UV-I 652 W/m 11,3 km/h (2 Bft)
06.04.2007 12:20 13,5 C 57 % 1021,7 hPa 0,0 mm 3,2 km/h (1 Bft) SW 225 10 min 4 UV-I 657 W/m 9,7 km/h (2 Bft)
06.04.2007 12:30 14,2 C 52 % 1021,6 hPa 0,0 mm 3,2 km/h (1 Bft) W 270 10 min 4 UV-I 719 W/m 9,7 km/h (2 Bft)
06.04.2007 12:40 14,3 C 52 % 1021,6 hPa 0,0 mm 3,2 km/h (1 Bft) W-SW 247 10 min 4 UV-I 703 W/m 16,1 km/h (3 Bft)
06.04.2007 12:50 14,1 C 51 % 1021,4 hPa 0,0 mm 3,2 km/h (1 Bft) W-SW 247 10 min 4 UV-I 712 W/m 16,1 km/h (3 Bft)
06.04.2007 13:00 14,5 C 49 % 1021,3 hPa 0,0 mm 4,8 km/h (1 Bft) SW 225 10 min 4 UV-I 652 W/m 17,7 km/h (3 Bft)
06.04.2007 13:10 14,4 C 49 % 1021,2 hPa 0,0 mm 3,2 km/h (1 Bft) W-SW 247 10 min 4 UV-I 691 W/m 8,0 km/h (2 Bft)
06.04.2007 13:20 15,1 C 48 % 1021,2 hPa 0,0 mm 3,2 km/h (1 Bft) W-SW 247 10 min 4 UV-I 731 W/m 12,9 km/h (3 Bft)
06.04.2007 13:30 15,3 C 52 % 1021,1 hPa 0,0 mm 3,2 km/h (1 Bft) SW 225 10 min 4 UV-I 731 W/m 9,7 km/h (2 Bft)
06.04.2007 13:40 15,6 C 53 % 1021,1 hPa 0,0 mm 4,8 km/h (1 Bft) W-SW 247 10 min 4 UV-I 780 W/m 14,5 km/h (3 Bft)
06.04.2007 13:50 15,6 C 54 % 1021,0 hPa 0,0 mm 4,8 km/h (1 Bft) W-SW 247 10 min 4 UV-I 691 W/m 14,5 km/h (3 Bft)
06.04.2007 14:00 15,2 C 52 % 1020,9 hPa 0,0 mm 1,6 km/h (1 Bft) W-SW 247 10 min 4 UV-I 731 W/m 6,4 km/h (2 Bft)
06.04.2007 14:10 15,7 C 55 % 1020,8 hPa 0,0 mm 4,8 km/h (1 Bft) W-SW 247 10 min 3 UV-I 411 W/m 16,1 km/h (3 Bft)
06.04.2007 14:20 15,3 C 55 % 1020,7 hPa 0,0 mm 3,2 km/h (1 Bft) W-SW 247 0 min 2 UV-I 287 W/m 14,5 km/h (3 Bft)
06.04.2007 14:30 15,1 C 56 % 1020,7 hPa 0,0 mm 4,8 km/h (1 Bft) W-SW 247 0 min 2 UV-I 278 W/m 11,3 km/h (2 Bft)
06.04.2007 14:40 15,0 C 58 % 1020,6 hPa 0,0 mm 3,2 km/h (1 Bft) W 270 0 min 2 UV-I 260 W/m 9,7 km/h (2 Bft)
06.04.2007 14:50 15,3 C 57 % 1020,5 hPa 0,0 mm 3,2 km/h (1 Bft) SW 225 10 min 2 UV-I 404 W/m 11,3 km/h (2 Bft)
06.04.2007 15:00 15,4 C 57 % 1020,5 hPa 0,0 mm 3,2 km/h (1 Bft) W-SW 247 10 min 3 UV-I 364 W/m 11,3 km/h (2 Bft)
06.04.2007 15:10 15,8 C 56 % 1020,4 hPa 0,0 mm 3,2 km/h (1 Bft) W-SW 247 10 min 3 UV-I 563 W/m 9,7 km/h (2 Bft)
06.04.2007 15:20 15,8 C 56 % 1020,4 hPa 0,0 mm 3,2 km/h (1 Bft) W-SW 247 10 min 3 UV-I 584 W/m 11,3 km/h (2 Bft)
06.04.2007 15:30 15,9 C 57 % 1020,2 hPa 0,0 mm 3,2 km/h (1 Bft) W-SW 247 10 min 3 UV-I 585 W/m 14,5 km/h (3 Bft)
06.04.2007 15:40 16,3 C 55 % 1020,1 hPa 0,0 mm 3,2 km/h (1 Bft) W-SW 247 10 min 3 UV-I 596 W/m 11,3 km/h (2 Bft)
06.04.2007 15:50 16,4 C 54 % 1020,1 hPa 0,0 mm 4,8 km/h (1 Bft) SW 225 10 min 2 UV-I 508 W/m 17,7 km/h (3 Bft)
06.04.2007 16:00 16,1 C 55 % 1019,9 hPa 0,0 mm 3,2 km/h (1 Bft) W 270 0 min 1 UV-I 232 W/m 11,3 km/h (2 Bft)
06.04.2007 16:10 15,7 C 56 % 1020,0 hPa 0,0 mm 4,8 km/h (1 Bft) W-SW 247 10 min 1 UV-I 374 W/m 14,5 km/h (3 Bft)
06.04.2007 16:20 15,7 C 56 % 1020,0 hPa 0,0 mm 3,2 km/h (1 Bft) W 270 0 min 1 UV-I 176 W/m 9,7 km/h (2 Bft)
06.04.2007 16:30 15,4 C 57 % 1020,0 hPa 0,0 mm 4,8 km/h (1 Bft) W-SW 247 0 min 1 UV-I 128 W/m 11,3 km/h (2 Bft)
06.04.2007 16:40 15,4 C 56 % 1019,9 hPa 0,0 mm 1,6 km/h (1 Bft) W 270 0 min 1 UV-I 186 W/m 6,4 km/h (2 Bft)
06.04.2007 16:50 15,6 C 56 % 1019,9 hPa 0,0 mm 1,6 km/h (1 Bft) W 270 0 min 1 UV-I 176 W/m 6,4 km/h (2 Bft)
06.04.2007 17:00 15,6 C 56 % 1019,9 hPa 0,0 mm 3,2 km/h (1 Bft) W-SW 247 0 min 1 UV-I 186 W/m 6,4 km/h (2 Bft)
06.04.2007 17:10 15,6 C 55 % 1019,9 hPa 0,0 mm 3,2 km/h (1 Bft) W-NW 292 0 min 1 UV-I 169 W/m 8,0 km/h (2 Bft)
06.04.2007 17:20 15,6 C 56 % 1019,9 hPa 0,0 mm 1,6 km/h (1 Bft) W-SW 247 0 min 1 UV-I 156 W/m 6,4 km/h (2 Bft)
06.04.2007 17:30 15,6 C 55 % 1019,8 hPa 0,0 mm 1,6 km/h (1 Bft) W-NW 292 10 min 1 UV-I 244 W/m 8,0 km/h (2 Bft)
06.04.2007 17:40 15,5 C 53 % 1019,9 hPa 0,0 mm 3,2 km/h (1 Bft) W-NW 292 0 min 1 UV-I 190 W/m 8,0 km/h (2 Bft)
06.04.2007 17:50 15,2 C 55 % 1019,9 hPa 0,0 mm 1,6 km/h (1 Bft) S 180 10 min 1 UV-I 227 W/m 4,8 km/h (1 Bft)
06.04.2007 18:00 15,0 C 57 % 1020,0 hPa 0,0 mm 1,6 km/h (1 Bft) O-NO 67 10 min 1 UV-I 227 W/m 9,7 km/h (2 Bft)
06.04.2007 18:10 14,4 C 61 % 1020,2 hPa 0,0 mm 3,2 km/h (1 Bft) O-NO 67 10 min 1 UV-I 195 W/m 8,0 km/h (2 Bft)
06.04.2007 18:20 13,7 C 62 % 1020,3 hPa 0,0 mm 1,6 km/h (1 Bft) O-SO 112 10 min 0 UV-I 163 W/m 4,8 km/h (1 Bft)
06.04.2007 18:30 13,2 C 62 % 1020,4 hPa 0,0 mm 3,2 km/h (1 Bft) O 90 10 min 0 UV-I 160 W/m 8,0 km/h (2 Bft)
06.04.2007 18:40 12,9 C 63 % 1020,4 hPa 0,0 mm 1,6 km/h (1 Bft) SO 135 10 min 0 UV-I 137 W/m 6,4 km/h (2 Bft)
06.04.2007 18:50 12,7 C 64 % 1020,4 hPa 0,0 mm 1,6 km/h (1 Bft) O 90 10 min 0 UV-I 118 W/m 6,4 km/h (2 Bft)
06.04.2007 19:00 12,5 C 65 % 1020,5 hPa 0,0 mm 1,6 km/h (1 Bft) NO 45 10 min 0 UV-I 93 W/m 9,7 km/h (2 Bft)
06.04.2007 19:10 12,3 C 65 % 1020,5 hPa 0,0 mm 3,2 km/h (1 Bft) O-NO 67 10 min 0 UV-I 76 W/m 9,7 km/h (2 Bft)
06.04.2007 19:20 12,0 C 65 % 1020,6 hPa 0,0 mm 1,6 km/h (1 Bft) O 90 0 min 0 UV-I 58 W/m 9,7 km/h (2 Bft)
06.04.2007 19:30 11,8 C 65 % 1020,6 hPa 0,0 mm 1,6 km/h (1 Bft) O-NO 67 0 min 0 UV-I 35 W/m 8,0 km/h (2 Bft)
06.04.2007 19:40 11,7 C 65 % 1020,6 hPa 0,0 mm 1,6 km/h (1 Bft) O 90 0 min 0 UV-I 23 W/m 8,0 km/h (2 Bft)
06.04.2007 19:50 11,6 C 66 % 1020,7 hPa 0,0 mm 1,6 km/h (1 Bft) S 180 0 min 0 UV-I 12 W/m 3,2 km/h (1 Bft)
06.04.2007 20:00 11,4 C 66 % 1020,8 hPa 0,0 mm 1,6 km/h (1 Bft) O-NO 67 0 min 0 UV-I 7 W/m 6,4 km/h (2 Bft)
06.04.2007 20:10 11,3 C 66 % 1020,7 hPa 0,0 mm 1,6 km/h (1 Bft) O-NO 67 0 min 0 UV-I 0 W/m 9,7 km/h (2 Bft)
06.04.2007 20:20 11,2 C 67 % 1020,9 hPa 0,0 mm 1,6 km/h (1 Bft) NO 45 0 min 0 UV-I 0 W/m 3,2 km/h (1 Bft)
06.04.2007 20:30 11,1 C 66 % 1020,9 hPa 0,0 mm 1,6 km/h (1 Bft) O-NO 67 0 min 0 UV-I 0 W/m 4,8 km/h (1 Bft)
06.04.2007 20:40 10,9 C 68 % 1021,0 hPa 0,0 mm 0,0 km/h (0 Bft) N-NO 22 0 min 0 UV-I 0 W/m 1,6 km/h (1 Bft)
06.04.2007 20:50 10,8 C 68 % 1021,2 hPa 0,0 mm 0,0 km/h (0 Bft) NO 45 0 min 0 UV-I 0 W/m 1,6 km/h (1 Bft)
06.04.2007 21:00 10,6 C 69 % 1021,3 hPa 0,0 mm 0,0 km/h (0 Bft) N-NO 22 0 min 0 UV-I 0 W/m 3,2 km/h (1 Bft)
06.04.2007 21:10 10,3 C 70 % 1021,6 hPa 0,0 mm 0,0 km/h (0 Bft) N-NO 22 0 min 0 UV-I 0 W/m 1,6 km/h (1 Bft)
06.04.2007 21:20 10,2 C 70 % 1021,5 hPa 0,0 mm 0,0 km/h (0 Bft) N-NO 22 0 min 0 UV-I 0 W/m 1,6 km/h (1 Bft)
06.04.2007 21:30 10,1 C 71 % 1021,6 hPa 0,0 mm 0,0 km/h (0 Bft) N-NO 22 0 min 0 UV-I 0 W/m 1,6 km/h (1 Bft)
06.04.2007 21:40 9,9 C 72 % 1021,6 hPa 0,0 mm 0,0 km/h (0 Bft) N 0 0 min 0 UV-I 0 W/m 0,0 km/h (0 Bft)
06.04.2007 21:50 9,9 C 72 % 1021,6 hPa 0,0 mm 0,0 km/h (0 Bft) N 0 0 min 0 UV-I 0 W/m 0,0 km/h (0 Bft)
06.04.2007 22:00 9,8 C 74 % 1021,7 hPa 0,0 mm 0,0 km/h (0 Bft) N 0 0 min 0 UV-I 0 W/m 0,0 km/h (0 Bft)
06.04.2007 22:10 9,6 C 75 % 1021,8 hPa 0,0 mm 0,0 km/h (0 Bft) N 0 0 min 0 UV-I 0 W/m 0,0 km/h (0 Bft)
06.04.2007 22:20 9,5 C 75 % 1021,8 hPa 0,0 mm 0,0 km/h (0 Bft) N 0 0 min 0 UV-I 0 W/m 0,0 km/h (0 Bft)
06.04.2007 22:30 9,6 C 74 % 1021,8 hPa 0,0 mm 0,0 km/h (0 Bft) N-NO 22 0 min 0 UV-I 0 W/m 1,6 km/h (1 Bft)
06.04.2007 22:40 9,6 C 73 % 1021,9 hPa 0,0 mm 0,0 km/h (0 Bft) N-NO 22 0 min 0 UV-I 0 W/m 1,6 km/h (1 Bft)
06.04.2007 22:50 9,7 C 74 % 1022,0 hPa 0,0 mm 0,0 km/h (0 Bft) N-NO 22 0 min 0 UV-I 0 W/m 1,6 km/h (1 Bft)
06.04.2007 23:00 9,6 C 73 % 1022,0 hPa 0,0 mm 0,0 km/h (0 Bft) N-NO 22 0 min 0 UV-I 0 W/m 1,6 km/h (1 Bft)
06.04.2007 23:10 9,7 C 74 % 1022,0 hPa 0,0 mm 0,0 km/h (0 Bft) N-NO 22 0 min 0 UV-I 0 W/m 3,2 km/h (1 Bft)
06.04.2007 23:20 9,6 C 74 % 1022,0 hPa 0,0 mm 0,0 km/h (0 Bft) N-NO 22 0 min 0 UV-I 0 W/m 1,6 km/h (1 Bft)
06.04.2007 23:30 9,4 C 75 % 1022,0 hPa 0,0 mm 0,0 km/h (0 Bft) N 0 0 min 0 UV-I 0 W/m 0,0 km/h (0 Bft)
06.04.2007 23:40 9,3 C 76 % 1022,2 hPa 0,0 mm 0,0 km/h (0 Bft) N-NO 22 0 min 0 UV-I 0 W/m 1,6 km/h (1 Bft)
06.04.2007 23:50 9,2 C 76 % 1022,2 hPa 0,0 mm 0,0 km/h (0 Bft) N 0 0 min 0 UV-I 0 W/m 0,0 km/h (0 Bft)
_ Min-Zeit 07:10 13:20 17:30 - 00:00 - - - - - 00:00
Minimum _ 1,7 C 48 % 1019,8 hPa - 0,0 km/h (0 Bft) - - - - - 0,0 km/h (0 Bft)
_ Max-Zeit 15:50 03:40 23:40 00:00 11:50 - - 07:40 12:20 13:40 13:00
Maximum _ 16,5 C 91 % 1022,2 hPa 0,0 mm 4,8 km/h
W-SW (1 Bft)
- - 10 min 4 UV-I 780 W/m 17,7 km/h
N (3 Bft)
Durchschnitt _ 9,2 C 73 % 1021,1 hPa #0,0 mm 1,3 km/h (1 Bft) W-SW - #9:40 h 2 UV-I 344 W/m 4,8 km/h (1 Bft)